• Join FlightAware (Why Join?)
  • Login
  • US Flag 
09:24AM EDT


 

Airport Tracker/Info


-or-


 

Live Flight TrackerFlight Track Log ✈ ASQ5678 ✈ 03-May-2013 ✈ KIAH - KDAL

Flight Track Log - Related Links

Times and Time Zones

All times are in EDT time to prevent confusion due to time zone crossing. See the ASQ5678 flight status page for this flight to view local times or setup timezone preferences in your user account.

Time Position Orientation Groundspeed Altitude Reporting Facility
EDT Latitude Longitude Course Direction KTS MPH feet Rate Location/Type
12:48PM 29.9756 -95.3347 328° Northwest 155 178 900  Level Houston Center
12:49PM 30.0094 -95.3594 328° Northwest 194 223 2,800 1,620 Climbing Houston Center
12:50PM 30.0592 -95.3428 16° North 232 267 3,900 540 Climbing Houston Center
12:51PM 30.1133 -95.3064 30° Northeast 226 260 3,900  Level Houston Center
12:52PM 30.1692 -95.2692 30° Northeast 230 265 3,900 1,380 Level Houston Center
12:53PM 30.2292 -95.2733 357° North 215 247 6,800 2,580 Climbing Houston Center
12:54PM 30.2944 -95.2739 360° North 231 266 9,300 1,980 Climbing Houston Center
12:55PM 30.3714 -95.3150 335° Northwest 269 310 10,900 1,440 Climbing Houston Center
12:56PM 30.4381 -95.3639 328° Northwest 304 350 12,300 1,680 Climbing Houston Center
12:57PM 30.5192 -95.4264 326° Northwest 318 366 14,400 1,920 Climbing Houston Center
12:58PM 30.5928 -95.4814 327° Northwest 317 365 16,300 1,620 Climbing Houston Center
12:59PM 30.6939 -95.5114 346° North 335 386 17,800 1,260 Climbing Houston Center
01:00PM 30.7900 -95.5333 349° North 345 397 19,000 960 Climbing Houston Center
01:01PM 30.8908 -95.5553 349° North 362 417 19,900 480 Climbing Houston Center
01:02PM 30.9975 -95.5800 349° North 383 441 20,000  Climbing Houston Center
01:03PM 31.1075 -95.6042 349° North 396 456 20,000  Level Houston Center
01:04PM 31.1944 -95.6261 348° North 395 455 20,000  Level Fort Worth Center
01:05PM 31.3053 -95.6506 349° North 403 464 20,000  Level Fort Worth Center
01:06PM 31.4061 -95.6950 339° North 384 442 20,000  Level Fort Worth Center
01:07PM 31.4989 -95.7567 330° Northwest 379 436 20,000  Level Fort Worth Center
01:08PM 31.5872 -95.8136 331° Northwest 379 436 20,000 -660 Level Fort Worth Center
01:09PM 31.6819 -95.8778 330° Northwest 379 436 18,700 -1,140 Descending Fort Worth Center
01:10PM 31.7747 -95.9447 328° Northwest 373 429 17,800 -1,380 Descending Fort Worth Center
01:11PM 31.8589 -95.9997 331° Northwest 356 410 16,000 -960 Descending Fort Worth Center
01:12PM 31.9408 -96.0522 331° Northwest 345 397 15,900 -60 Descending Fort Worth Center
01:13PM 32.0269 -96.1097 330° Northwest 345 397 15,900 -1,020 Level Fort Worth Center
01:14PM 32.1069 -96.1625 331° Northwest 345 397 13,900 -2,280 Descending Fort Worth Center
01:15PM 32.1825 -96.2156 329° Northwest 333 383 11,400 -1,680 Descending Fort Worth Center
01:16PM 32.2497 -96.2564 333° Northwest 303 349 10,600 -1,020 Descending Fort Worth Center
01:17PM 32.3169 -96.2972 333° Northwest 261 300 9,400 -840 Descending Fort Worth Center
01:18PM 32.3672 -96.3261 334° Northwest 228 262 9,000 -960 Descending Fort Worth Center
01:19PM 32.4283 -96.3650 332° Northwest 222 255 7,500 -1,380 Descending Fort Worth Center
01:20PM 32.4703 -96.4086 319° Northwest 222 255 6,300 -1,200 Descending Fort Worth Center
01:21PM 32.5167 -96.4650 314° West 222 255 5,200 -960 Descending Fort Worth Center
01:22PM 32.5567 -96.5114 316° Northwest 222 255 4,400 -660 Descending Fort Worth Center
01:23PM 32.6031 -96.5650 316° Northwest 222 255 4,000 -660 Descending Fort Worth Center
01:24PM 32.6450 -96.6117 317° Northwest 217 250 3,100 -780 Descending Fort Worth Center
01:25PM 32.6872 -96.6606 316° Northwest 217 250 2,500 -480 Descending Fort Worth Center
01:25PM 32.7000 -96.6667 338° Northwest 213 245 2,500 -180 Level Dallas / Fort Worth TRACON
01:26PM 32.7500 -96.7167 320° Northwest 201 231 2,300 -180 Descending Dallas / Fort Worth TRACON
01:27PM 32.7833 -96.7667 308° West 191 220 2,200 -480 Descending Dallas / Fort Worth TRACON
01:28PM 32.8000 -96.8000 301° West 110 127 1,500 -660 Descending Dallas / Fort Worth TRACON
01:29PM 32.8333 -96.8333 320° Northwest 118 136 900 -600 Descending Dallas / Fort Worth TRACON
01:32PM 32.8333 -96.8500 301° West  Level FlightAware Approximate